Aérodrome :
LOGIN :

S'inscrire | Disclaimer

   EN    FR    IT 

 










Légende :    VFR   VFR Marginal   IFR   IFR Intensif   IFR Très Intensif
Visi : 
Plafond : 
>= 8 km
>= 3000ft
5 à 8 km
1000 à 3000 ft
1500m à 5 km
500 à 1000 ft
800 à 1500m
200 à 500 ft
< 800m
< 200 ft
Symboles :   Orages  Brouillard  Fortes neiges  Fortes précipitations  Vent > 20 kt
SIGMETs :   Divers  Orages  Givrage  Turbulence  Onde Orograph.  Cendres Volcan.







- Altitude de l'aérodrome : 170 ft
- Code IATA : BGO


ENBR - Bergen , Flesland

DERNIER METAR :
  • 202250Z VRB02KT 9999 FEW001 M02/M03 Q1027 RMK WIND 1200FT 11007KT

METARs EXPIRÉS :
  • 202220Z VRB02KT 9999 1200N R17/0400N PRFG SCT001 M02/M02 Q1027 RMK WIND 1200FT 11006KT
  • 202150Z 07002KT 0100 R17/0450N FZFG VV001 M02/M02 Q1027 RMK WIND 1200FT 14004KT
  • 202120Z 00000KT 0150 R17/0750N FZFG VV001 M01/M01 Q1027 RMK WIND 1200FT 22003KT
  • 202050Z 06002KT 0250 R17/0700N FZFG VV001 M01/M01 Q1027 RMK WIND 1200FT 28003KT

TAF TAF ENBR
Valide du 20 à 18h jusqu'au 21 à 18h UTC


2018/2118 09005KT 0300 FZFG VV001
TEMPO 2018/2118 5000 FEW003 BKN005
BECMG 2103/2106 BKN010
Pas de NOTAMs connus pour ce terrain.



MET'MAP, la Météo Aéronautique d'un coup d'oeil ! - Copyright ORBIFLY Décembre 2007 - Disclaimer

ORBIFLY MET'MAP TEAM :

Programmation & Développement : Alexandra Zaïnal
Conception & Développement : Baudouin d'Aumeries
Co-Programmation & Développement : Marc-Olivier Méhu
Soutien technique & logistique : Manuel Goepfert

Contact : metmap@orbifly.com




SOURCES & CREDITS :

   NOAA